Aeroporto :
LOGIN :

Iscrizione | Disclaimer

   EN    FR    IT 

 










Sommario :    VFR   VFR Marginale   IFR   IFR Intensivo   IFR Molto Intensivo
Visibilità : 
Base nubi : 
>= 8 km
>= 3000ft
5 / 8 km
1000 / 3000 ft
1500m / 5 km
500 / 1000 ft
800 / 1500m
200 / 500 ft
< 800m
< 200 ft
Simboli :   Temporali  Nebbia  Neve Forte  Precipitazioni Forti  Vento > 20 kt
SIGMETs :   Varie  Temporali  Ghiacco  Turbolenza  Onda orograficha  Ceneri Vulcaniche






- Altitudine del aeroporto : 412 ft
- Codice IATA : ORE


LFOJ - Orleans

ULTIMO METAR :
  • 212330Z AUTO 00000KT 0750 0500 R25/0800U FG NSC 06/06 Q1022

METARs OBSOLETI :
  • 212300Z AUTO 23003KT 9999 1400 R25/P2000 NSC 07/06 Q1022
  • 212230Z AUTO 21003KT CAVOK 07/07 Q1022
  • 212200Z AUTO 18003KT CAVOK 08/07 Q1022
  • 212130Z AUTO VRB03KT CAVOK 08/08 Q1022 TEMPO 3000 BR
  • 212100Z AUTO 18004KT CAVOK 09/08 Q1022 TEMPO 3000 BR

TAF TAF LFOJ
Valido dal 21 a 21 ore il 22 a 21 ore UTC


212000Z 2121/2221 VRB02KT CAVOK
TEMPO 2122/2124 3000 BR
BECMG 2200/2202 0300 FG VV///
BECMG 2210/2213 04012KT CAVOK
BECMG 2216/2218 4000 -RA BKN014 BKN050



MetMap, La meteo Aeronautica in un colpo d'occhio ! - Copyright ORBIFLY Dicembre 2007 - Disclaimer

ORBIFLY MET'MAP TEAM :

Programmazione e sviluppo : Alexandra Zaïnal
Concezione e sviluppo : Baudouin d'Aumeries
Co-Programmazione e sviluppo : Marc-Olivier Méhu
Supporto tecnico e logistico : Manuel Goepfert
Aiuto per la traduzione : Arnaldo La Scala

Contatto : metmap@orbifly.com




FONTI E CREDITI :

   NOAA